sensor_id;sensor_type;location;lat;lon;timestamp;pressure;altitude;pressure_sealevel;temperature;humidity
46303;BME280;32029;51.358;5.628;2024-01-06T00:00:31;100004.81;;;9.86;100.00
46303;BME280;32029;51.358;5.628;2024-01-06T00:02:58;100005.66;;;9.87;100.00
46303;BME280;32029;51.358;5.628;2024-01-06T00:05:25;100017.88;;;9.84;100.00
46303;BME280;32029;51.358;5.628;2024-01-06T00:07:52;100010.28;;;9.79;100.00
46303;BME280;32029;51.358;5.628;2024-01-06T00:10:19;100013.81;;;9.73;100.00
46303;BME280;32029;51.358;5.628;2024-01-06T00:12:46;100011.06;;;9.73;100.00
46303;BME280;32029;51.358;5.628;2024-01-06T00:15:12;100016.94;;;9.70;100.00
46303;BME280;32029;51.358;5.628;2024-01-06T00:17:39;100027.44;;;9.60;100.00
46303;BME280;32029;51.358;5.628;2024-01-06T00:20:07;100037.72;;;9.58;100.00
46303;BME280;32029;51.358;5.628;2024-01-06T00:22:34;100035.81;;;9.52;100.00
46303;BME280;32029;51.358;5.628;2024-01-06T00:25:03;100022.66;;;9.41;100.00
46303;BME280;32029;51.358;5.628;2024-01-06T00:27:30;100023.06;;;9.38;100.00
46303;BME280;32029;51.358;5.628;2024-01-06T00:29:58;100031.91;;;9.40;100.00
46303;BME280;32029;51.358;5.628;2024-01-06T00:32:25;100027.25;;;9.33;100.00
46303;BME280;32029;51.358;5.628;2024-01-06T00:34:54;100024.66;;;9.25;100.00
46303;BME280;32029;51.358;5.628;2024-01-06T00:37:21;100030.91;;;9.19;100.00
46303;BME280;32029;51.358;5.628;2024-01-06T00:39:48;100030.50;;;9.22;100.00
46303;BME280;32029;51.358;5.628;2024-01-06T00:42:16;100027.31;;;9.19;100.00
46303;BME280;32029;51.358;5.628;2024-01-06T00:44:44;100022.84;;;9.11;100.00
46303;BME280;32029;51.358;5.628;2024-01-06T00:47:13;100022.59;;;9.06;100.00
46303;BME280;32029;51.358;5.628;2024-01-06T00:49:40;100032.41;;;9.00;100.00
46303;BME280;32029;51.358;5.628;2024-01-06T00:52:08;100037.44;;;8.97;100.00
46303;BME280;32029;51.358;5.628;2024-01-06T00:54:35;100032.75;;;8.91;100.00
46303;BME280;32029;51.358;5.628;2024-01-06T00:57:03;100030.78;;;8.84;100.00
46303;BME280;32029;51.358;5.628;2024-01-06T00:59:31;100037.69;;;8.80;100.00
46303;BME280;32029;51.358;5.628;2024-01-06T01:01:58;100031.97;;;8.75;100.00
46303;BME280;32029;51.358;5.628;2024-01-06T01:04:26;100043.97;;;8.74;100.00
46303;BME280;32029;51.358;5.628;2024-01-06T01:06:54;100047.25;;;8.70;100.00
46303;BME280;32029;51.358;5.628;2024-01-06T01:09:21;100061.59;;;8.72;100.00
46303;BME280;32029;51.358;5.628;2024-01-06T01:11:49;100059.06;;;8.70;100.00
46303;BME280;32029;51.358;5.628;2024-01-06T01:14:17;100064.91;;;8.67;100.00
46303;BME280;32029;51.358;5.628;2024-01-06T01:16:46;100053.06;;;8.60;100.00
46303;BME280;32029;51.358;5.628;2024-01-06T01:19:14;100066.06;;;8.58;100.00
46303;BME280;32029;51.358;5.628;2024-01-06T01:21:41;100070.88;;;8.56;100.00
46303;BME280;32029;51.358;5.628;2024-01-06T01:24:09;100072.41;;;8.58;100.00
46303;BME280;32029;51.358;5.628;2024-01-06T01:26:36;100077.31;;;8.48;100.00
46303;BME280;32029;51.358;5.628;2024-01-06T01:29:03;100077.91;;;8.44;100.00
46303;BME280;32029;51.358;5.628;2024-01-06T01:31:31;100078.06;;;8.42;100.00
46303;BME280;32029;51.358;5.628;2024-01-06T01:33:59;100078.81;;;8.36;100.00
46303;BME280;32029;51.358;5.628;2024-01-06T01:36:26;100083.81;;;8.32;100.00
46303;BME280;32029;51.358;5.628;2024-01-06T01:38:53;100093.53;;;8.35;100.00
46303;BME280;32029;51.358;5.628;2024-01-06T01:41:20;100093.00;;;8.40;100.00
46303;BME280;32029;51.358;5.628;2024-01-06T01:43:48;100091.75;;;8.42;100.00
46303;BME280;32029;51.358;5.628;2024-01-06T01:46:16;100099.88;;;8.50;100.00
46303;BME280;32029;51.358;5.628;2024-01-06T01:48:43;100104.28;;;8.51;100.00
46303;BME280;32029;51.358;5.628;2024-01-06T01:51:11;100104.28;;;8.51;100.00
46303;BME280;32029;51.358;5.628;2024-01-06T01:53:40;100098.44;;;8.54;100.00
46303;BME280;32029;51.358;5.628;2024-01-06T01:56:08;100114.44;;;8.57;100.00
46303;BME280;32029;51.358;5.628;2024-01-06T01:58:36;100104.63;;;8.63;100.00
46303;BME280;32029;51.358;5.628;2024-01-06T02:01:04;100122.72;;;8.64;100.00
46303;BME280;32029;51.358;5.628;2024-01-06T02:03:32;100127.56;;;8.62;100.00
46303;BME280;32029;51.358;5.628;2024-01-06T02:06:00;100131.31;;;8.61;100.00
46303;BME280;32029;51.358;5.628;2024-01-06T02:08:27;100129.63;;;8.60;100.00
46303;BME280;32029;51.358;5.628;2024-01-06T02:10:55;100136.31;;;8.57;100.00
46303;BME280;32029;51.358;5.628;2024-01-06T02:13:23;100139.25;;;8.56;100.00
46303;BME280;32029;51.358;5.628;2024-01-06T02:15:50;100146.25;;;8.58;100.00
46303;BME280;32029;51.358;5.628;2024-01-06T02:18:20;100147.47;;;8.56;100.00
46303;BME280;32029;51.358;5.628;2024-01-06T02:20:49;100158.59;;;8.54;100.00
46303;BME280;32029;51.358;5.628;2024-01-06T02:23:18;100158.59;;;8.54;100.00
46303;BME280;32029;51.358;5.628;2024-01-06T02:25:46;100165.38;;;8.58;100.00
46303;BME280;32029;51.358;5.628;2024-01-06T02:28:15;100166.28;;;8.66;100.00
46303;BME280;32029;51.358;5.628;2024-01-06T02:30:43;100166.38;;;8.72;100.00
46303;BME280;32029;51.358;5.628;2024-01-06T02:33:11;100173.00;;;8.78;100.00
46303;BME280;32029;51.358;5.628;2024-01-06T02:35:38;100172.41;;;8.82;100.00
46303;BME280;32029;51.358;5.628;2024-01-06T02:38:07;100174.09;;;8.83;100.00
46303;BME280;32029;51.358;5.628;2024-01-06T02:40:36;100178.72;;;8.83;100.00
46303;BME280;32029;51.358;5.628;2024-01-06T02:43:04;100187.78;;;8.83;100.00
46303;BME280;32029;51.358;5.628;2024-01-06T02:45:31;100183.63;;;8.88;100.00
46303;BME280;32029;51.358;5.628;2024-01-06T02:47:58;100186.81;;;8.91;100.00
46303;BME280;32029;51.358;5.628;2024-01-06T02:50:25;100188.44;;;8.86;100.00
46303;BME280;32029;51.358;5.628;2024-01-06T02:52:52;100199.00;;;8.89;100.00
46303;BME280;32029;51.358;5.628;2024-01-06T02:55:19;100206.19;;;8.90;100.00
46303;BME280;32029;51.358;5.628;2024-01-06T02:57:47;100210.59;;;8.91;100.00
46303;BME280;32029;51.358;5.628;2024-01-06T03:00:15;100209.75;;;8.90;100.00
46303;BME280;32029;51.358;5.628;2024-01-06T03:02:42;100208.50;;;8.93;100.00
46303;BME280;32029;51.358;5.628;2024-01-06T03:05:09;100206.34;;;8.88;100.00
46303;BME280;32029;51.358;5.628;2024-01-06T03:07:37;100212.28;;;8.92;100.00
46303;BME280;32029;51.358;5.628;2024-01-06T03:10:05;100209.94;;;8.89;100.00
46303;BME280;32029;51.358;5.628;2024-01-06T03:12:33;100215.81;;;8.86;100.00
46303;BME280;32029;51.358;5.628;2024-01-06T03:15:01;100219.09;;;8.81;100.00
46303;BME280;32029;51.358;5.628;2024-01-06T03:17:28;100222.03;;;8.79;100.00
46303;BME280;32029;51.358;5.628;2024-01-06T03:19:55;100227.13;;;8.68;100.00
46303;BME280;32029;51.358;5.628;2024-01-06T03:22:22;100221.09;;;8.57;100.00
46303;BME280;32029;51.358;5.628;2024-01-06T03:24:49;100230.63;;;8.62;100.00
46303;BME280;32029;51.358;5.628;2024-01-06T03:27:17;100227.50;;;8.65;100.00
46303;BME280;32029;51.358;5.628;2024-01-06T03:29:44;100233.19;;;8.63;100.00
46303;BME280;32029;51.358;5.628;2024-01-06T03:32:11;100237.22;;;8.67;100.00
46303;BME280;32029;51.358;5.628;2024-01-06T03:34:38;100246.94;;;8.70;100.00
46303;BME280;32029;51.358;5.628;2024-01-06T03:37:04;100254.69;;;8.66;100.00
46303;BME280;32029;51.358;5.628;2024-01-06T03:39:31;100255.06;;;8.63;100.00
46303;BME280;32029;51.358;5.628;2024-01-06T03:41:59;100252.03;;;8.58;100.00
46303;BME280;32029;51.358;5.628;2024-01-06T03:44:27;100265.06;;;8.56;100.00
46303;BME280;32029;51.358;5.628;2024-01-06T03:47:00;100254.47;;;8.53;100.00
46303;BME280;32029;51.358;5.628;2024-01-06T03:49:26;100261.19;;;8.50;100.00
46303;BME280;32029;51.358;5.628;2024-01-06T03:51:54;100265.13;;;8.48;100.00
46303;BME280;32029;51.358;5.628;2024-01-06T03:54:21;100269.66;;;8.41;100.00
46303;BME280;32029;51.358;5.628;2024-01-06T03:56:49;100272.44;;;8.32;100.00
46303;BME280;32029;51.358;5.628;2024-01-06T03:59:16;100279.13;;;8.30;100.00
46303;BME280;32029;51.358;5.628;2024-01-06T04:01:43;100276.59;;;8.28;100.00
46303;BME280;32029;51.358;5.628;2024-01-06T04:04:10;100290.53;;;8.33;100.00
46303;BME280;32029;51.358;5.628;2024-01-06T04:06:37;100280.16;;;8.29;100.00
46303;BME280;32029;51.358;5.628;2024-01-06T04:09:05;100282.13;;;8.20;100.00
46303;BME280;32029;51.358;5.628;2024-01-06T04:11:32;100291.06;;;8.14;100.00
46303;BME280;32029;51.358;5.628;2024-01-06T04:13:59;100284.81;;;8.05;100.00
46303;BME280;32029;51.358;5.628;2024-01-06T04:16:27;100293.38;;;8.02;100.00
46303;BME280;32029;51.358;5.628;2024-01-06T04:18:54;100293.81;;;7.91;100.00
46303;BME280;32029;51.358;5.628;2024-01-06T04:21:21;100299.88;;;7.78;100.00
46303;BME280;32029;51.358;5.628;2024-01-06T04:23:49;100282.53;;;7.71;100.00
46303;BME280;32029;51.358;5.628;2024-01-06T04:26:15;100305.22;;;7.72;100.00
46303;BME280;32029;51.358;5.628;2024-01-06T04:28:42;100309.72;;;7.65;100.00
46303;BME280;32029;51.358;5.628;2024-01-06T04:31:09;100299.56;;;7.50;100.00
46303;BME280;32029;51.358;5.628;2024-01-06T04:33:36;100298.53;;;7.51;100.00
46303;BME280;32029;51.358;5.628;2024-01-06T04:36:03;100306.56;;;7.53;100.00
46303;BME280;32029;51.358;5.628;2024-01-06T04:38:31;100313.72;;;7.54;100.00
46303;BME280;32029;51.358;5.628;2024-01-06T04:40:59;100313.06;;;7.44;100.00
46303;BME280;32029;51.358;5.628;2024-01-06T04:43:26;100320.97;;;7.39;100.00
46303;BME280;32029;51.358;5.628;2024-01-06T04:45:54;100313.66;;;7.31;100.00
46303;BME280;32029;51.358;5.628;2024-01-06T04:48:21;100314.00;;;7.28;100.00
46303;BME280;32029;51.358;5.628;2024-01-06T04:50:50;100323.84;;;7.37;100.00
46303;BME280;32029;51.358;5.628;2024-01-06T04:53:16;100329.81;;;7.41;100.00
46303;BME280;32029;51.358;5.628;2024-01-06T04:55:43;100333.06;;;7.36;100.00
46303;BME280;32029;51.358;5.628;2024-01-06T04:58:10;100332.22;;;7.35;100.00
46303;BME280;32029;51.358;5.628;2024-01-06T05:00:37;100344.38;;;7.25;100.00
46303;BME280;32029;51.358;5.628;2024-01-06T05:03:04;100343.88;;;7.21;100.00
46303;BME280;32029;51.358;5.628;2024-01-06T05:05:32;100342.53;;;7.17;100.00
46303;BME280;32029;51.358;5.628;2024-01-06T05:07:59;100352.06;;;7.21;100.00
46303;BME280;32029;51.358;5.628;2024-01-06T05:10:26;100343.78;;;7.15;100.00
46303;BME280;32029;51.358;5.628;2024-01-06T05:12:53;100360.25;;;7.21;100.00
46303;BME280;32029;51.358;5.628;2024-01-06T05:15:20;100359.59;;;7.19;100.00
46303;BME280;32029;51.358;5.628;2024-01-06T05:17:48;100357.91;;;7.18;100.00
46303;BME280;32029;51.358;5.628;2024-01-06T05:20:15;100359.28;;;7.14;100.00
46303;BME280;32029;51.358;5.628;2024-01-06T05:22:42;100351.44;;;7.11;100.00
46303;BME280;32029;51.358;5.628;2024-01-06T05:25:10;100366.94;;;7.19;100.00
46303;BME280;32029;51.358;5.628;2024-01-06T05:27:37;100368.81;;;7.18;100.00
46303;BME280;32029;51.358;5.628;2024-01-06T05:30:04;100374.63;;;7.15;100.00
46303;BME280;32029;51.358;5.628;2024-01-06T05:32:31;100377.66;;;7.20;100.00
46303;BME280;32029;51.358;5.628;2024-01-06T05:34:58;100367.78;;;7.19;100.00
46303;BME280;32029;51.358;5.628;2024-01-06T05:37:24;100375.59;;;7.30;100.00
46303;BME280;32029;51.358;5.628;2024-01-06T05:39:51;100386.81;;;7.35;100.00
46303;BME280;32029;51.358;5.628;2024-01-06T05:42:18;100371.13;;;7.29;100.00
46303;BME280;32029;51.358;5.628;2024-01-06T05:44:45;100387.63;;;7.44;100.00
46303;BME280;32029;51.358;5.628;2024-01-06T05:47:12;100389.16;;;7.47;100.00
46303;BME280;32029;51.358;5.628;2024-01-06T05:49:41;100389.31;;;7.53;100.00
46303;BME280;32029;51.358;5.628;2024-01-06T05:52:10;100392.41;;;7.50;100.00
46303;BME280;32029;51.358;5.628;2024-01-06T05:54:40;100395.63;;;7.54;100.00
46303;BME280;32029;51.358;5.628;2024-01-06T05:57:08;100405.16;;;7.58;100.00
46303;BME280;32029;51.358;5.628;2024-01-06T05:59:36;100401.44;;;7.51;100.00
46303;BME280;32029;51.358;5.628;2024-01-06T06:02:02;100400.78;;;7.41;100.00
46303;BME280;32029;51.358;5.628;2024-01-06T06:04:30;100408.00;;;7.33;100.00
46303;BME280;32029;51.358;5.628;2024-01-06T06:06:58;100411.38;;;7.35;100.00
46303;BME280;32029;51.358;5.628;2024-01-06T06:09:24;100415.31;;;7.33;100.00
46303;BME280;32029;51.358;5.628;2024-01-06T06:11:51;100415.31;;;7.33;100.00
46303;BME280;32029;51.358;5.628;2024-01-06T06:14:18;100433.53;;;7.41;100.00
46303;BME280;32029;51.358;5.628;2024-01-06T06:16:46;100424.69;;;7.39;100.00
46303;BME280;32029;51.358;5.628;2024-01-06T06:19:14;100431.84;;;7.40;100.00
46303;BME280;32029;51.358;5.628;2024-01-06T06:21:41;100434.78;;;7.30;100.00
46303;BME280;32029;51.358;5.628;2024-01-06T06:24:08;100428.16;;;7.16;100.00
46303;BME280;32029;51.358;5.628;2024-01-06T06:26:34;100447.09;;;7.18;100.00
46303;BME280;32029;51.358;5.628;2024-01-06T06:29:01;100453.03;;;7.21;100.00
46303;BME280;32029;51.358;5.628;2024-01-06T06:31:28;100454.78;;;7.22;100.00
46303;BME280;32029;51.358;5.628;2024-01-06T06:33:55;100458.16;;;7.24;100.00
46303;BME280;32029;51.358;5.628;2024-01-06T06:36:22;100466.00;;;7.27;100.00
46303;BME280;32029;51.358;5.628;2024-01-06T06:38:50;100470.44;;;7.28;100.00
46303;BME280;32029;51.358;5.628;2024-01-06T06:41:17;100467.03;;;7.26;100.00
46303;BME280;32029;51.358;5.628;2024-01-06T06:43:45;100466.50;;;7.31;100.00
46303;BME280;32029;51.358;5.628;2024-01-06T06:46:12;100473.50;;;7.33;100.00
46303;BME280;32029;51.358;5.628;2024-01-06T06:48:40;100471.78;;;7.32;100.00
46303;BME280;32029;51.358;5.628;2024-01-06T06:51:06;100472.47;;;7.34;100.00
46303;BME280;32029;51.358;5.628;2024-01-06T06:53:33;100471.44;;;7.35;100.00
46303;BME280;32029;51.358;5.628;2024-01-06T06:56:00;100481.50;;;7.43;100.00
46303;BME280;32029;51.358;5.628;2024-01-06T06:58:27;100479.59;;;7.44;100.00
46303;BME280;32029;51.358;5.628;2024-01-06T07:00:54;100499.22;;;7.47;100.00
46303;BME280;32029;51.358;5.628;2024-01-06T07:03:21;100501.94;;;7.47;100.00
46303;BME280;32029;51.358;5.628;2024-01-06T07:05:47;100514.41;;;7.50;100.00
46303;BME280;32029;51.358;5.628;2024-01-06T07:08:15;100516.44;;;7.48;100.00
46303;BME280;32029;51.358;5.628;2024-01-06T07:10:42;100514.44;;;7.42;100.00
46303;BME280;32029;51.358;5.628;2024-01-06T07:13:10;100518.53;;;7.29;100.00
46303;BME280;32029;51.358;5.628;2024-01-06T07:15:37;100521.97;;;7.23;100.00
46303;BME280;32029;51.358;5.628;2024-01-06T07:18:04;100522.81;;;7.24;100.00
46303;BME280;32029;51.358;5.628;2024-01-06T07:20:31;100528.09;;;7.25;100.00
46303;BME280;32029;51.358;5.628;2024-01-06T07:22:57;100522.63;;;7.17;100.00
46303;BME280;32029;51.358;5.628;2024-01-06T07:25:25;100533.53;;;7.25;100.00
46303;BME280;32029;51.358;5.628;2024-01-06T07:27:53;100543.47;;;7.26;100.00
46303;BME280;32029;51.358;5.628;2024-01-06T07:30:20;100551.13;;;7.23;100.00
46303;BME280;32029;51.358;5.628;2024-01-06T07:32:47;100533.22;;;7.12;100.00
46303;BME280;32029;51.358;5.628;2024-01-06T07:35:15;100543.47;;;7.18;100.00
46303;BME280;32029;51.358;5.628;2024-01-06T07:37:45;100549.28;;;7.15;100.00
46303;BME280;32029;51.358;5.628;2024-01-06T07:40:13;100537.31;;;7.08;100.00
46303;BME280;32029;51.358;5.628;2024-01-06T07:42:43;100545.19;;;7.11;100.00
46303;BME280;32029;51.358;5.628;2024-01-06T07:45:11;100560.50;;;7.12;100.00
46303;BME280;32029;51.358;5.628;2024-01-06T07:47:40;100556.75;;;7.13;100.00
46303;BME280;32029;51.358;5.628;2024-01-06T07:50:08;100552.53;;;7.10;100.00
46303;BME280;32029;51.358;5.628;2024-01-06T07:52:36;100563.06;;;7.13;100.00
46303;BME280;32029;51.358;5.628;2024-01-06T07:55:04;100561.19;;;7.06;100.00
46303;BME280;32029;51.358;5.628;2024-01-06T07:57:32;100567.53;;;7.06;100.00
46303;BME280;32029;51.358;5.628;2024-01-06T07:59:59;100569.38;;;7.06;100.00
46303;BME280;32029;51.358;5.628;2024-01-06T08:02:27;100577.56;;;7.06;100.00
46303;BME280;32029;51.358;5.628;2024-01-06T08:04:55;100579.81;;;7.02;100.00
46303;BME280;32029;51.358;5.628;2024-01-06T08:07:23;100579.28;;;6.99;100.00
46303;BME280;32029;51.358;5.628;2024-01-06T08:09:50;100589.16;;;7.00;100.00
46303;BME280;32029;51.358;5.628;2024-01-06T08:12:17;100587.47;;;6.99;100.00
46303;BME280;32029;51.358;5.628;2024-01-06T08:14:43;100592.75;;;7.00;100.00
46303;BME280;32029;51.358;5.628;2024-01-06T08:17:10;100591.38;;;6.96;100.00
46303;BME280;32029;51.358;5.628;2024-01-06T08:19:37;100610.47;;;6.96;100.00
46303;BME280;32029;51.358;5.628;2024-01-06T08:22:05;100611.31;;;6.97;100.00
46303;BME280;32029;51.358;5.628;2024-01-06T08:24:32;100610.28;;;6.90;100.00
46303;BME280;32029;51.358;5.628;2024-01-06T08:26:59;100624.97;;;6.88;100.00
46303;BME280;32029;51.358;5.628;2024-01-06T08:29:26;100619.31;;;6.82;100.00
46303;BME280;32029;51.358;5.628;2024-01-06T08:31:53;100625.66;;;6.91;100.00
46303;BME280;32029;51.358;5.628;2024-01-06T08:34:21;100631.47;;;6.96;100.00
46303;BME280;32029;51.358;5.628;2024-01-06T08:36:49;100634.19;;;7.04;100.00
46303;BME280;32029;51.358;5.628;2024-01-06T08:39:17;100630.75;;;7.02;100.00
46303;BME280;32029;51.358;5.628;2024-01-06T08:41:46;100645.28;;;7.02;100.00
46303;BME280;32029;51.358;5.628;2024-01-06T08:44:13;100634.84;;;6.98;100.00
46303;BME280;32029;51.358;5.628;2024-01-06T08:46:40;100652.25;;;7.05;100.00
46303;BME280;32029;51.358;5.628;2024-01-06T08:49:06;100652.09;;;7.06;100.00
46303;BME280;32029;51.358;5.628;2024-01-06T08:51:34;100651.25;;;7.14;100.00
46303;BME280;32029;51.358;5.628;2024-01-06T08:54:02;100649.53;;;7.13;100.00
46303;BME280;32029;51.358;5.628;2024-01-06T08:56:34;100652.97;;;7.15;100.00
46303;BME280;32029;51.358;5.628;2024-01-06T08:59:02;100655.50;;;7.17;100.00
46303;BME280;32029;51.358;5.628;2024-01-06T09:01:30;100663.88;;;7.23;100.00
46303;BME280;32029;51.358;5.628;2024-01-06T09:03:58;100671.75;;;7.26;100.00
46303;BME280;32029;51.358;5.628;2024-01-06T09:06:25;100676.81;;;7.21;100.00
46303;BME280;32029;51.358;5.628;2024-01-06T09:08:53;100686.38;;;7.17;100.00
46303;BME280;32029;51.358;5.628;2024-01-06T09:11:21;100686.03;;;7.12;100.00
46303;BME280;32029;51.358;5.628;2024-01-06T09:13:48;100699.50;;;7.05;100.00
46303;BME280;32029;51.358;5.628;2024-01-06T09:16:15;100683.44;;;6.94;100.00
46303;BME280;32029;51.358;5.628;2024-01-06T09:18:42;100700.31;;;6.98;100.00
46303;BME280;32029;51.358;5.628;2024-01-06T09:21:09;100693.50;;;6.94;100.00
46303;BME280;32029;51.358;5.628;2024-01-06T09:23:36;100711.75;;;7.01;100.00
46303;BME280;32029;51.358;5.628;2024-01-06T09:26:03;100707.50;;;6.99;100.00
46303;BME280;32029;51.358;5.628;2024-01-06T09:28:30;100709.22;;;7.00;100.00
46303;BME280;32029;51.358;5.628;2024-01-06T09:30:56;100716.56;;;7.07;100.00
46303;BME280;32029;51.358;5.628;2024-01-06T09:33:23;100727.66;;;7.14;100.00
46303;BME280;32029;51.358;5.628;2024-01-06T09:35:50;100730.72;;;7.11;100.00
46303;BME280;32029;51.358;5.628;2024-01-06T09:38:18;100733.13;;;7.14;100.00
46303;BME280;32029;51.358;5.628;2024-01-06T09:40:45;100744.91;;;7.15;100.00
46303;BME280;32029;51.358;5.628;2024-01-06T09:43:14;100746.41;;;7.17;100.00
46303;BME280;32029;51.358;5.628;2024-01-06T09:45:41;100736.84;;;7.13;100.00
46303;BME280;32029;51.358;5.628;2024-01-06T09:48:12;100740.63;;;7.12;100.00
46303;BME280;32029;51.358;5.628;2024-01-06T09:50:43;100744.38;;;7.11;100.00
46303;BME280;32029;51.358;5.628;2024-01-06T09:53:13;100747.25;;;7.09;100.00
46303;BME280;32029;51.358;5.628;2024-01-06T09:55:40;100754.97;;;7.14;100.00
46303;BME280;32029;51.358;5.628;2024-01-06T09:58:09;100763.16;;;7.22;100.00
46303;BME280;32029;51.358;5.628;2024-01-06T10:00:37;100768.94;;;7.19;100.00
46303;BME280;32029;51.358;5.628;2024-01-06T10:03:05;100762.13;;;7.15;100.00
46303;BME280;32029;51.358;5.628;2024-01-06T10:05:35;100773.69;;;7.17;100.00
46303;BME280;32029;51.358;5.628;2024-01-06T10:08:02;100773.03;;;7.15;100.00
46303;BME280;32029;51.358;5.628;2024-01-06T10:10:33;100780.19;;;7.16;100.00
46303;BME280;32029;51.358;5.628;2024-01-06T10:13:00;100769.97;;;7.10;100.00
46303;BME280;32029;51.358;5.628;2024-01-06T10:15:27;100791.81;;;7.18;100.00
46303;BME280;32029;51.358;5.628;2024-01-06T10:17:54;100783.63;;;7.18;100.00
46303;BME280;32029;51.358;5.628;2024-01-06T10:20:21;100788.72;;;7.21;100.00
46303;BME280;32029;51.358;5.628;2024-01-06T10:22:48;100785.16;;;7.29;100.00
46303;BME280;32029;51.358;5.628;2024-01-06T10:25:15;100786.38;;;7.26;100.00
46303;BME280;32029;51.358;5.628;2024-01-06T10:27:42;100797.63;;;7.23;100.00
46303;BME280;32029;51.358;5.628;2024-01-06T10:30:09;100792.81;;;7.17;100.00
46303;BME280;32029;51.358;5.628;2024-01-06T10:32:37;100796.88;;;7.13;100.00
46303;BME280;32029;51.358;5.628;2024-01-06T10:35:04;100795.50;;;7.09;100.00
46303;BME280;32029;51.358;5.628;2024-01-06T10:37:33;100796.38;;;7.09;100.00
46303;BME280;32029;51.358;5.628;2024-01-06T10:40:10;100786.97;;;7.04;100.00
46303;BME280;32029;51.358;5.628;2024-01-06T10:42:39;100793.50;;;7.11;100.00
46303;BME280;32029;51.358;5.628;2024-01-06T10:45:08;100784.25;;;7.04;100.00
46303;BME280;32029;51.358;5.628;2024-01-06T10:47:36;100781.53;;;7.04;100.00
46303;BME280;32029;51.358;5.628;2024-01-06T10:50:04;100793.81;;;7.08;100.00
46303;BME280;32029;51.358;5.628;2024-01-06T10:52:31;100800.66;;;7.12;100.00
46303;BME280;32029;51.358;5.628;2024-01-06T10:55:01;100802.34;;;7.13;100.00
46303;BME280;32029;51.358;5.628;2024-01-06T10:57:29;100802.34;;;7.13;100.00
46303;BME280;32029;51.358;5.628;2024-01-06T10:59:59;100805.25;;;7.11;100.00
46303;BME280;32029;51.358;5.628;2024-01-06T11:02:27;100807.31;;;7.18;100.00
46303;BME280;32029;51.358;5.628;2024-01-06T11:04:54;100800.13;;;7.08;100.00
46303;BME280;32029;51.358;5.628;2024-01-06T11:07:23;100819.75;;;7.12;100.00
46303;BME280;32029;51.358;5.628;2024-01-06T11:09:58;100816.16;;;7.11;100.00
46303;BME280;32029;51.358;5.628;2024-01-06T11:12:26;100821.09;;;7.08;100.00
46303;BME280;32029;51.358;5.628;2024-01-06T11:14:53;100826.88;;;7.05;100.00
46303;BME280;32029;51.358;5.628;2024-01-06T11:20:17;100823.81;;;7.00;100.00
46303;BME280;32029;51.358;5.628;2024-01-06T11:22:43;100820.19;;;6.91;100.00
46303;BME280;32029;51.358;5.628;2024-01-06T11:25:19;100816.78;;;6.97;100.00
46303;BME280;32029;51.358;5.628;2024-01-06T11:27:49;100816.25;;;6.94;100.00
46303;BME280;32029;51.358;5.628;2024-01-06T11:30:34;100821.72;;;6.94;100.00
46303;BME280;32029;51.358;5.628;2024-01-06T11:33:04;100825.47;;;6.93;100.00
46303;BME280;32029;51.358;5.628;2024-01-06T11:35:31;100829.00;;;6.85;100.00
46303;BME280;32029;51.358;5.628;2024-01-06T11:38:01;100815.69;;;6.82;100.00
46303;BME280;32029;51.358;5.628;2024-01-06T11:40:33;100817.25;;;6.84;100.00
46303;BME280;32029;51.358;5.628;2024-01-06T11:43:08;100829.03;;;6.93;100.00
46303;BME280;32029;51.358;5.628;2024-01-06T11:45:37;100820.88;;;6.93;100.00
46303;BME280;32029;51.358;5.628;2024-01-06T11:48:05;100827.19;;;7.02;100.00
46303;BME280;32029;51.358;5.628;2024-01-06T11:50:34;100826.22;;;7.11;100.00
46303;BME280;32029;51.358;5.628;2024-01-06T11:53:03;100818.41;;;7.16;100.00
46303;BME280;32029;51.358;5.628;2024-01-06T11:55:31;100828.31;;;7.25;100.00
46303;BME280;32029;51.358;5.628;2024-01-06T11:57:58;100830.69;;;7.20;100.00
46303;BME280;32029;51.358;5.628;2024-01-06T12:00:29;100832.38;;;7.21;100.00
46303;BME280;32029;51.358;5.628;2024-01-06T12:02:58;100826.09;;;7.21;100.00
46303;BME280;32029;51.358;5.628;2024-01-06T12:05:26;100818.41;;;7.16;100.00
46303;BME280;32029;51.358;5.628;2024-01-06T12:07:57;100839.94;;;7.27;100.00
46303;BME280;32029;51.358;5.628;2024-01-06T12:10:26;100826.97;;;7.29;100.00
46303;BME280;32029;51.358;5.628;2024-01-06T12:13:01;100839.94;;;7.27;100.00
46303;BME280;32029;51.358;5.628;2024-01-06T12:15:30;100830.03;;;7.26;100.00
46303;BME280;32029;51.358;5.628;2024-01-06T12:17:57;100828.69;;;7.30;100.00
46303;BME280;32029;51.358;5.628;2024-01-06T12:20:26;100832.78;;;7.34;100.00
46303;BME280;32029;51.358;5.628;2024-01-06T12:22:53;100815.38;;;7.35;100.00
46303;BME280;32029;51.358;5.628;2024-01-06T12:25:21;100821.72;;;7.44;100.00
46303;BME280;32029;51.358;5.628;2024-01-06T12:27:49;100823.91;;;7.41;100.00
46303;BME280;32029;51.358;5.628;2024-01-06T12:30:18;100831.59;;;7.37;100.00
46303;BME280;32029;51.358;5.628;2024-01-06T12:32:46;100828.50;;;7.32;100.00
46303;BME280;32029;51.358;5.628;2024-01-06T12:35:15;100821.31;;;7.23;100.00
46303;BME280;32029;51.358;5.628;2024-01-06T12:37:43;100815.03;;;7.22;100.00
46303;BME280;32029;51.358;5.628;2024-01-06T12:40:12;100832.78;;;7.26;100.00
46303;BME280;32029;51.358;5.628;2024-01-06T12:42:40;100830.38;;;7.23;100.00
46303;BME280;32029;51.358;5.628;2024-01-06T12:45:07;100829.00;;;7.19;100.00
46303;BME280;32029;51.358;5.628;2024-01-06T12:47:34;100827.63;;;7.15;100.00
46303;BME280;32029;51.358;5.628;2024-01-06T12:50:01;100829.81;;;7.11;100.00
46303;BME280;32029;51.358;5.628;2024-01-06T12:52:28;100834.25;;;7.12;100.00
46303;BME280;32029;51.358;5.628;2024-01-06T12:54:55;100838.19;;;7.18;100.00